Aérodrome :
LOGIN :

S'inscrire | Disclaimer

   EN    FR    IT 

 










Légende :    VFR   VFR Marginal   IFR   IFR Intensif   IFR Très Intensif
Visi : 
Plafond : 
>= 8 km
>= 3000ft
5 à 8 km
1000 à 3000 ft
1500m à 5 km
500 à 1000 ft
800 à 1500m
200 à 500 ft
< 800m
< 200 ft
Symboles :   Orages  Brouillard  Fortes neiges  Fortes précipitations  Vent > 20 kt
SIGMETs :   Divers  Orages  Givrage  Turbulence  Onde Orograph.  Cendres Volcan.






- Altitude de l'aérodrome : 42 ft
- Code IATA : KGD


UMKK - Khrabrava - Kaliningrad

DERNIER METAR :
  • 171430Z 25006MPS 9999 SCT040 09/02 Q1009 R24/19//95 NOSIG RMK QFE755/1007

METARs EXPIRÉS :
  • 171400Z 26007MPS 9999 SCT039 10/02 Q1009 R24/19//95 NOSIG RMK QFE755/1007
  • 171330Z 25009MPS 9999 BKN038 10/02 Q1009 R24/19//95 NOSIG RMK QFE755/1007
  • 171300Z 25010MPS 9999 BKN037 10/02 Q1008 R24/19//95 NOSIG RMK QFE755/1007
  • 171230Z 25009MPS 9999 BKN035 10/03 Q1008 R24/19//95 NOSIG RMK QFE755/1007
  • 171200Z 25011MPS 9999 BKN036 09/03 Q1008 R24/19//95 NOSIG RMK QFE755/1007

TAF TAF UMKK
Valide du 17 à 15h jusqu'au 18 à 15h UTC


171400Z 1715/1815 24008G13MPS 9999 BKN030
TEMPO 1718/1724 22006G11MPS SCT030
TEMPO 1803/1815 3100 -SHRA FEW004 BKN012CB
BECMG 1811/1813 25009G15MPS



MET'MAP, la Météo Aéronautique d'un coup d'oeil ! - Copyright ORBIFLY Décembre 2007 - Disclaimer

ORBIFLY MET'MAP TEAM :

Programmation & Développement : Alexandra Zaïnal
Sur une idée originale de : Baudouin d'Aumeries
Assistance à la programmation : Marc-Olivier Méhu
Soutien technique & logistique : Manuel Goepfert

Contact : metmap@orbifly.com




SOURCES & CREDITS :

   NOAA